KLKV/LKV METAR and TAF weather

Enter ICAO airport designator
Station Type Date Time Source
KLKV METAR 2018/12/15 21:06 UTC NOAA

KLKV 152106Z AUTO 06003KT 10SM BKN030 OVC046 04/01 A3002 RMK AO2


Station Type Date Time Source
KLKV Decoded METAR 2018/12/15 21:06 UTC NOAA

Lakeview, Lake County Airport, OR, United States (KLKV) 42-10N 120-24W
Dec 15, 2018 - 04:06 PM EST / 2018.12.15 2106 UTC
Wind: from the ENE (060 degrees) at 3 MPH (3 KT):0
Visibility: 10 mile(s):0
Sky conditions: overcast
Temperature: 39 F (4 C)
Dew Point: 33 F (1 C)
Relative Humidity: 80%
Pressure (altimeter): 30.02 in. Hg (1016 hPa)
ob: KLKV 152106Z AUTO 06003KT 10SM BKN030 OVC046 04/01 A3002 RMK AO2
cycle: 21

Station Type Date Time Source
KLKV TAF UTC NOAA

Error!


Example: see airport list